createdAt,value
2018-11-27T00:02:49.698Z,98.69
2018-11-27T00:12:49.776Z,99.00
2018-11-27T00:22:49.751Z,98.84
2018-11-27T00:32:49.752Z,98.85
2018-11-27T00:42:50.201Z,98.87
2018-11-27T00:52:49.777Z,98.95
2018-11-27T01:02:49.755Z,98.99
2018-11-27T01:12:49.674Z,99.27
2018-11-27T01:22:49.637Z,99.36
2018-11-27T01:32:49.966Z,99.49
2018-11-27T01:42:49.712Z,99.73
2018-11-27T01:52:50.026Z,99.69
2018-11-27T02:02:50.022Z,99.81
2018-11-27T02:12:49.698Z,99.77
2018-11-27T02:22:49.801Z,99.67
2018-11-27T02:32:49.845Z,100.00
2018-11-27T02:42:49.703Z,100.00
2018-11-27T02:52:49.794Z,100.00
2018-11-27T03:02:50.377Z,100.00
2018-11-27T03:12:49.714Z,100.00
2018-11-27T03:22:49.726Z,100.00
2018-11-27T03:32:49.741Z,100.00
2018-11-27T03:42:49.733Z,100.00
2018-11-27T03:52:49.662Z,100.00
2018-11-27T04:02:50.741Z,100.00
2018-11-27T04:12:49.834Z,100.00
2018-11-27T04:22:49.760Z,100.00
2018-11-27T04:32:50.745Z,100.00
2018-11-27T04:42:49.673Z,100.00
2018-11-27T04:52:49.746Z,100.00
2018-11-27T05:02:49.689Z,100.00
2018-11-27T05:12:49.748Z,100.00
2018-11-27T05:22:49.690Z,100.00
2018-11-27T05:32:49.781Z,100.00
2018-11-27T05:42:49.649Z,100.00
2018-11-27T05:52:49.721Z,100.00
2018-11-27T06:02:49.711Z,100.00
2018-11-27T06:12:49.678Z,100.00
2018-11-27T06:22:49.730Z,100.00
2018-11-27T06:32:49.899Z,100.00
2018-11-27T06:42:49.769Z,100.00
2018-11-27T06:52:49.736Z,100.00
2018-11-27T07:02:50.567Z,100.00
2018-11-27T07:12:49.821Z,100.00
2018-11-27T07:22:49.788Z,100.00
2018-11-27T07:32:50.949Z,100.00
2018-11-27T07:42:49.912Z,100.00
2018-11-27T07:52:50.898Z,100.00
2018-11-27T08:02:49.667Z,100.00
2018-11-27T08:12:50.628Z,100.00
2018-11-27T08:22:49.668Z,100.00
2018-11-27T08:32:49.961Z,100.00
2018-11-27T08:42:49.687Z,100.00
2018-11-27T08:52:49.569Z,100.00
2018-11-27T09:02:49.699Z,100.00
2018-11-27T09:12:49.633Z,100.00
2018-11-27T09:22:49.853Z,100.00
2018-11-27T09:32:49.624Z,100.00
2018-11-27T09:42:49.780Z,100.00
2018-11-27T09:52:49.792Z,100.00
2018-11-27T10:02:50.082Z,100.00
2018-11-27T10:12:49.613Z,99.51
2018-11-27T10:22:49.775Z,98.96
2018-11-27T10:32:49.687Z,99.09
2018-11-27T10:42:50.010Z,98.37
2018-11-27T10:52:49.598Z,98.27
2018-11-27T11:02:52.798Z,98.01
2018-11-27T11:12:49.583Z,98.07
2018-11-27T11:22:49.546Z,97.72
2018-11-27T11:32:49.618Z,95.88
2018-11-27T11:42:49.538Z,95.46
2018-11-27T11:52:49.643Z,96.15
2018-11-27T12:02:49.749Z,95.30
2018-11-27T12:12:49.596Z,94.05
2018-11-27T12:22:49.645Z,94.15
2018-11-27T12:32:49.588Z,93.81
2018-11-27T12:42:49.616Z,93.88
2018-11-27T12:52:49.965Z,94.00
2018-11-27T13:02:49.581Z,93.62
2018-11-27T13:12:49.727Z,93.41
2018-11-27T13:22:49.939Z,92.81
2018-11-27T13:32:49.768Z,92.84
2018-11-27T13:42:49.809Z,92.39
2018-11-27T13:52:49.697Z,92.31
2018-11-27T14:02:49.483Z,92.64
2018-11-27T14:12:49.570Z,92.81
2018-11-27T14:22:49.614Z,93.27
2018-11-27T14:32:49.563Z,93.71
2018-11-27T14:42:49.549Z,94.52
2018-11-27T14:52:49.596Z,94.31
2018-11-27T15:02:49.588Z,94.43
2018-11-27T15:12:49.583Z,93.50
2018-11-27T15:22:49.632Z,93.61
2018-11-27T15:32:49.594Z,93.92
2018-11-27T15:42:49.620Z,93.89
2018-11-27T15:52:49.479Z,93.67
2018-11-27T16:02:49.694Z,93.12
2018-11-27T16:12:49.634Z,93.77
2018-11-27T16:22:49.592Z,93.44
2018-11-27T16:32:49.614Z,94.06
2018-11-27T16:42:49.635Z,94.19
2018-11-27T16:52:49.517Z,94.80
2018-11-27T17:02:50.304Z,94.93
2018-11-27T17:12:49.619Z,95.40
2018-11-27T17:22:49.585Z,96.51
2018-11-27T17:32:49.569Z,97.41
2018-11-27T17:42:49.594Z,97.70
2018-11-27T17:52:49.637Z,98.18
2018-11-27T18:02:49.468Z,98.35
2018-11-27T18:12:49.608Z,97.97
2018-11-27T18:22:49.512Z,96.88
2018-11-27T18:32:49.555Z,95.56
2018-11-27T18:42:49.554Z,94.75
2018-11-27T18:52:49.518Z,94.32
2018-11-27T19:02:49.790Z,94.10
2018-11-27T19:12:49.601Z,94.08
2018-11-27T19:22:49.832Z,94.24
2018-11-27T19:32:49.530Z,93.97
2018-11-27T19:42:49.675Z,94.28
2018-11-27T19:52:49.578Z,94.48
2018-11-27T20:02:49.540Z,94.89
2018-11-27T20:12:49.620Z,94.88
2018-11-27T20:22:49.609Z,94.77
2018-11-27T20:32:49.571Z,94.58
2018-11-27T20:42:49.535Z,94.40
2018-11-27T20:52:49.571Z,93.51
2018-11-27T21:02:50.315Z,93.75
2018-11-27T21:12:49.489Z,93.94
2018-11-27T21:22:49.537Z,94.02
2018-11-27T21:32:49.549Z,94.69
2018-11-27T21:42:49.403Z,93.62
2018-11-27T21:52:49.533Z,93.22
2018-11-27T22:02:49.496Z,93.13
2018-11-27T22:12:49.539Z,94.00
2018-11-27T22:22:49.526Z,94.12
2018-11-27T22:32:49.490Z,93.06
2018-11-27T22:42:49.819Z,92.38
2018-11-27T22:52:49.509Z,92.05
2018-11-27T23:02:49.551Z,92.07
2018-11-27T23:12:49.427Z,90.98
2018-11-27T23:22:49.561Z,91.33
2018-11-27T23:32:49.532Z,92.21
2018-11-27T23:42:49.558Z,93.09
2018-11-27T23:52:49.469Z,92.18
